Elsmere, New York
Current Conditions -  °F | °C
As of 9:11 PM on Thursday 18 Dec 2014 (Local Time) from KALB Reporting Station
Overcast Overcast  
Wind Chill: -4°   Ceiling: 3200
Heat Index:   Visibility: 10mi
Dew Point: -3°   Wind: 14mph
Humidity: 73%   Direction: 310°NW
Pressure: 29.95"   Gusts: NA
Location:  42.6018°N, 73.8686°W
Report Text: KALB 190211Z 31012KT 10SM SCT022 BKN032 OVC050 01/M03 A2995 RMK AO2 T00111033
Loading
Personal Weather Stations






























Interactive Weather Map New forecast layout! Learn more

10-Day Weather Forecast

Advertisements
Track Severe Weather on mobile